KESF/ESF METAR and TAF weather

Enter ICAO airport designator
Station Type Date Time Source
KESF METAR 2022/05/23 13:53 UTC NOAA

KESF 231353Z AUTO 04003KT 4SM BR OVC005 20/18 A3010 RMK AO2 SLP192 T02000183


Station Type Date Time Source
KESF Decoded METAR 2022/05/23 13:53 UTC NOAA

ALEXANDRIA ESLER RGNL AIRPORT , LA, United States (KESF) 31-24N 092-18W 28M
May 23, 2022 - 09:53 AM EDT / 2022.05.23 1353 UTC
Wind: from the NE (040 degrees) at 3 MPH (3 KT):0
Visibility: 4 mile(s):0
Sky conditions: overcast
Weather: mist
Temperature: 68.0 F (20.0 C)
Dew Point: 64.9 F (18.3 C)
Relative Humidity: 89%
Pressure (altimeter): 30.1 in. Hg (1019 hPa)
ob: KESF 231353Z AUTO 04003KT 4SM BR OVC005 20/18 A3010 RMK AO2 SLP192 T02000183
cycle: 14

Station Type Date Time Source
KESF TAF UTC NOAA

Error!

Example: see airport list